sensor_id;sensor_type;location;lat;lon;timestamp;P1;durP1;ratioP1;P2;durP2;ratioP2
15474;SDS011;7839;50.462;9.678;2022-12-05T00:05:17;20.03;;;12.27;;
15474;SDS011;7839;50.462;9.678;2022-12-05T00:11:57;20.45;;;13.07;;
15474;SDS011;7839;50.462;9.678;2022-12-05T00:18:37;11.07;;;7.87;;
15474;SDS011;7839;50.462;9.678;2022-12-05T00:25:18;10.00;;;7.27;;
15474;SDS011;7839;50.462;9.678;2022-12-05T00:31:58;11.17;;;7.27;;
15474;SDS011;7839;50.462;9.678;2022-12-05T00:38:39;15.95;;;11.45;;
15474;SDS011;7839;50.462;9.678;2022-12-05T00:45:20;16.83;;;11.90;;
15474;SDS011;7839;50.462;9.678;2022-12-05T00:52:00;16.27;;;12.97;;
15474;SDS011;7839;50.462;9.678;2022-12-05T00:58:42;15.20;;;12.07;;
15474;SDS011;7839;50.462;9.678;2022-12-05T01:05:22;10.70;;;8.20;;
15474;SDS011;7839;50.462;9.678;2022-12-05T01:12:02;7.33;;;6.17;;
15474;SDS011;7839;50.462;9.678;2022-12-05T01:18:43;9.03;;;7.40;;
15474;SDS011;7839;50.462;9.678;2022-12-05T01:25:23;14.27;;;10.50;;
15474;SDS011;7839;50.462;9.678;2022-12-05T01:32:04;12.37;;;9.90;;
15474;SDS011;7839;50.462;9.678;2022-12-05T01:38:44;9.53;;;7.87;;
15474;SDS011;7839;50.462;9.678;2022-12-05T01:52:16;5.63;;;4.77;;
15474;SDS011;7839;50.462;9.678;2022-12-05T01:58:57;7.20;;;5.27;;
15474;SDS011;7839;50.462;9.678;2022-12-05T02:05:38;4.70;;;4.27;;
15474;SDS011;7839;50.462;9.678;2022-12-05T02:12:19;11.40;;;9.10;;
15474;SDS011;7839;50.462;9.678;2022-12-05T02:19:11;4.30;;;3.90;;
15474;SDS011;7839;50.462;9.678;2022-12-05T02:39:43;4.50;;;3.73;;
15474;SDS011;7839;50.462;9.678;2022-12-05T02:46:25;4.23;;;3.57;;
15474;SDS011;7839;50.462;9.678;2022-12-05T02:53:07;3.63;;;3.30;;
15474;SDS011;7839;50.462;9.678;2022-12-05T02:59:49;3.90;;;3.50;;
15474;SDS011;7839;50.462;9.678;2022-12-05T03:06:31;3.47;;;3.17;;
15474;SDS011;7839;50.462;9.678;2022-12-05T03:13:15;3.00;;;2.70;;
15474;SDS011;7839;50.462;9.678;2022-12-05T03:20:02;3.40;;;3.00;;
15474;SDS011;7839;50.462;9.678;2022-12-05T03:33:43;3.03;;;2.50;;
15474;SDS011;7839;50.462;9.678;2022-12-05T03:40:31;2.40;;;2.20;;
15474;SDS011;7839;50.462;9.678;2022-12-05T03:47:15;2.50;;;2.30;;
15474;SDS011;7839;50.462;9.678;2022-12-05T04:00:39;2.47;;;2.27;;
15474;SDS011;7839;50.462;9.678;2022-12-05T04:07:21;2.47;;;2.23;;
15474;SDS011;7839;50.462;9.678;2022-12-05T04:14:36;2.57;;;2.37;;
15474;SDS011;7839;50.462;9.678;2022-12-05T04:21:09;2.13;;;1.97;;
15474;SDS011;7839;50.462;9.678;2022-12-05T04:28:20;2.23;;;2.03;;
15474;SDS011;7839;50.462;9.678;2022-12-05T04:35:03;2.37;;;2.17;;
15474;SDS011;7839;50.462;9.678;2022-12-05T04:41:47;1.93;;;1.83;;
15474;SDS011;7839;50.462;9.678;2022-12-05T04:48:29;2.60;;;2.40;;
15474;SDS011;7839;50.462;9.678;2022-12-05T04:55:20;2.37;;;2.17;;
15474;SDS011;7839;50.462;9.678;2022-12-05T05:02:08;2.40;;;2.20;;
15474;SDS011;7839;50.462;9.678;2022-12-05T05:08:50;2.57;;;1.97;;
15474;SDS011;7839;50.462;9.678;2022-12-05T05:15:31;1.90;;;1.80;;
15474;SDS011;7839;50.462;9.678;2022-12-05T05:22:11;1.87;;;1.77;;
15474;SDS011;7839;50.462;9.678;2022-12-05T05:28:51;2.67;;;1.80;;
15474;SDS011;7839;50.462;9.678;2022-12-05T05:35:34;1.80;;;1.70;;
15474;SDS011;7839;50.462;9.678;2022-12-05T05:42:15;1.97;;;1.87;;
15474;SDS011;7839;50.462;9.678;2022-12-05T05:48:55;1.93;;;1.80;;
15474;SDS011;7839;50.462;9.678;2022-12-05T05:55:39;1.70;;;1.60;;
15474;SDS011;7839;50.462;9.678;2022-12-05T06:02:20;1.70;;;1.60;;
15474;SDS011;7839;50.462;9.678;2022-12-05T06:09:00;1.60;;;1.50;;
15474;SDS011;7839;50.462;9.678;2022-12-05T06:15:40;1.83;;;1.73;;
15474;SDS011;7839;50.462;9.678;2022-12-05T06:22:21;1.90;;;1.80;;
15474;SDS011;7839;50.462;9.678;2022-12-05T06:29:01;1.70;;;1.60;;
15474;SDS011;7839;50.462;9.678;2022-12-05T06:35:41;1.93;;;1.60;;
15474;SDS011;7839;50.462;9.678;2022-12-05T06:42:23;1.80;;;1.70;;
15474;SDS011;7839;50.462;9.678;2022-12-05T06:49:03;1.80;;;1.60;;
15474;SDS011;7839;50.462;9.678;2022-12-05T06:55:53;1.53;;;1.43;;
15474;SDS011;7839;50.462;9.678;2022-12-05T07:02:34;2.27;;;1.70;;
15474;SDS011;7839;50.462;9.678;2022-12-05T07:09:14;1.60;;;1.50;;
15474;SDS011;7839;50.462;9.678;2022-12-05T07:15:55;2.67;;;1.33;;
15474;SDS011;7839;50.462;9.678;2022-12-05T07:22:37;1.60;;;1.50;;
15474;SDS011;7839;50.462;9.678;2022-12-05T07:29:17;1.53;;;1.43;;
15474;SDS011;7839;50.462;9.678;2022-12-05T07:36:01;1.83;;;1.40;;
15474;SDS011;7839;50.462;9.678;2022-12-05T07:42:43;1.40;;;1.30;;
15474;SDS011;7839;50.462;9.678;2022-12-05T07:49:23;1.60;;;1.50;;
15474;SDS011;7839;50.462;9.678;2022-12-05T07:56:05;2.23;;;1.40;;
15474;SDS011;7839;50.462;9.678;2022-12-05T08:02:45;1.60;;;1.50;;
15474;SDS011;7839;50.462;9.678;2022-12-05T08:09:26;1.83;;;1.70;;
15474;SDS011;7839;50.462;9.678;2022-12-05T08:16:08;2.13;;;1.80;;
15474;SDS011;7839;50.462;9.678;2022-12-05T08:22:50;1.90;;;1.80;;
15474;SDS011;7839;50.462;9.678;2022-12-05T08:29:30;2.20;;;1.93;;
15474;SDS011;7839;50.462;9.678;2022-12-05T08:36:11;2.20;;;1.87;;
15474;SDS011;7839;50.462;9.678;2022-12-05T08:42:52;2.10;;;2.00;;
15474;SDS011;7839;50.462;9.678;2022-12-05T08:49:33;1.80;;;1.70;;
15474;SDS011;7839;50.462;9.678;2022-12-05T08:56:14;2.20;;;2.00;;
15474;SDS011;7839;50.462;9.678;2022-12-05T09:02:55;2.63;;;2.43;;
15474;SDS011;7839;50.462;9.678;2022-12-05T09:09:35;2.57;;;2.37;;
15474;SDS011;7839;50.462;9.678;2022-12-05T09:16:17;3.30;;;2.60;;
15474;SDS011;7839;50.462;9.678;2022-12-05T09:22:57;3.13;;;2.70;;
15474;SDS011;7839;50.462;9.678;2022-12-05T09:29:37;4.30;;;3.10;;
15474;SDS011;7839;50.462;9.678;2022-12-05T09:36:22;3.43;;;3.13;;
15474;SDS011;7839;50.462;9.678;2022-12-05T09:43:06;3.20;;;2.90;;
15474;SDS011;7839;50.462;9.678;2022-12-05T09:49:52;3.20;;;2.93;;
15474;SDS011;7839;50.462;9.678;2022-12-05T09:56:33;4.10;;;3.70;;
15474;SDS011;7839;50.462;9.678;2022-12-05T10:10:30;4.20;;;3.60;;
15474;SDS011;7839;50.462;9.678;2022-12-05T10:17:18;4.00;;;3.60;;
15474;SDS011;7839;50.462;9.678;2022-12-05T10:24:01;4.10;;;3.70;;
15474;SDS011;7839;50.462;9.678;2022-12-05T10:30:44;4.47;;;4.07;;
15474;SDS011;7839;50.462;9.678;2022-12-05T10:37:25;4.50;;;4.07;;
15474;SDS011;7839;50.462;9.678;2022-12-05T10:44:05;4.60;;;4.13;;
15474;SDS011;7839;50.462;9.678;2022-12-05T10:50:46;4.20;;;3.80;;
15474;SDS011;7839;50.462;9.678;2022-12-05T10:57:30;4.73;;;4.13;;
15474;SDS011;7839;50.462;9.678;2022-12-05T11:04:19;4.70;;;4.20;;
15474;SDS011;7839;50.462;9.678;2022-12-05T11:11:07;5.10;;;4.10;;
15474;SDS011;7839;50.462;9.678;2022-12-05T11:17:57;5.03;;;4.37;;
15474;SDS011;7839;50.462;9.678;2022-12-05T11:24:39;5.17;;;4.67;;
15474;SDS011;7839;50.462;9.678;2022-12-05T11:31:24;5.10;;;4.60;;
15474;SDS011;7839;50.462;9.678;2022-12-05T11:38:05;5.07;;;4.33;;
15474;SDS011;7839;50.462;9.678;2022-12-05T11:45:02;4.70;;;4.27;;
15474;SDS011;7839;50.462;9.678;2022-12-05T11:51:57;4.20;;;3.80;;
15474;SDS011;7839;50.462;9.678;2022-12-05T12:05:34;4.53;;;3.90;;
15474;SDS011;7839;50.462;9.678;2022-12-05T12:12:28;5.33;;;4.10;;
15474;SDS011;7839;50.462;9.678;2022-12-05T12:26:03;4.33;;;3.73;;
15474;SDS011;7839;50.462;9.678;2022-12-05T12:33:04;4.80;;;4.17;;
15474;SDS011;7839;50.462;9.678;2022-12-05T13:07:09;4.60;;;4.07;;
15474;SDS011;7839;50.462;9.678;2022-12-05T13:13:52;3.77;;;3.30;;
15474;SDS011;7839;50.462;9.678;2022-12-05T13:20:33;4.97;;;4.20;;
15474;SDS011;7839;50.462;9.678;2022-12-05T13:27:15;4.73;;;3.60;;
15474;SDS011;7839;50.462;9.678;2022-12-05T13:33:56;4.37;;;3.80;;
15474;SDS011;7839;50.462;9.678;2022-12-05T13:40:38;4.40;;;3.57;;
15474;SDS011;7839;50.462;9.678;2022-12-05T13:54:40;5.50;;;4.10;;
15474;SDS011;7839;50.462;9.678;2022-12-05T14:15:22;3.83;;;3.43;;
15474;SDS011;7839;50.462;9.678;2022-12-05T14:22:07;5.73;;;4.20;;
15474;SDS011;7839;50.462;9.678;2022-12-05T14:35:48;4.63;;;3.50;;
15474;SDS011;7839;50.462;9.678;2022-12-05T14:42:43;4.17;;;3.57;;
15474;SDS011;7839;50.462;9.678;2022-12-05T14:49:33;4.40;;;3.90;;
15474;SDS011;7839;50.462;9.678;2022-12-05T14:56:18;3.67;;;3.30;;
15474;SDS011;7839;50.462;9.678;2022-12-05T15:02:59;4.10;;;3.40;;
15474;SDS011;7839;50.462;9.678;2022-12-05T15:09:46;3.57;;;3.27;;
15474;SDS011;7839;50.462;9.678;2022-12-05T15:16:31;4.13;;;3.73;;
15474;SDS011;7839;50.462;9.678;2022-12-05T15:30:14;3.10;;;2.80;;
15474;SDS011;7839;50.462;9.678;2022-12-05T15:36:57;3.47;;;3.17;;
15474;SDS011;7839;50.462;9.678;2022-12-05T15:43:39;2.90;;;2.60;;
15474;SDS011;7839;50.462;9.678;2022-12-05T15:57:05;3.10;;;2.80;;
15474;SDS011;7839;50.462;9.678;2022-12-05T16:10:33;3.60;;;2.67;;
15474;SDS011;7839;50.462;9.678;2022-12-05T16:17:13;2.63;;;2.43;;
15474;SDS011;7839;50.462;9.678;2022-12-05T16:24:04;2.77;;;2.50;;
15474;SDS011;7839;50.462;9.678;2022-12-05T16:30:56;3.80;;;3.50;;
15474;SDS011;7839;50.462;9.678;2022-12-05T16:37:37;4.27;;;3.83;;
15474;SDS011;7839;50.462;9.678;2022-12-05T16:51:18;3.90;;;3.57;;
15474;SDS011;7839;50.462;9.678;2022-12-05T16:57:58;16.77;;;11.13;;
15474;SDS011;7839;50.462;9.678;2022-12-05T17:04:41;28.50;;;16.90;;
15474;SDS011;7839;50.462;9.678;2022-12-05T17:11:25;47.70;;;26.83;;
15474;SDS011;7839;50.462;9.678;2022-12-05T17:18:16;33.97;;;27.73;;
15474;SDS011;7839;50.462;9.678;2022-12-05T17:24:58;8.40;;;5.90;;
15474;SDS011;7839;50.462;9.678;2022-12-05T17:31:39;6.27;;;4.70;;
15474;SDS011;7839;50.462;9.678;2022-12-05T17:38:19;6.68;;;4.60;;
15474;SDS011;7839;50.462;9.678;2022-12-05T17:45:01;5.63;;;4.53;;
15474;SDS011;7839;50.462;9.678;2022-12-05T17:51:41;4.53;;;3.90;;
15474;SDS011;7839;50.462;9.678;2022-12-05T17:58:22;6.03;;;4.00;;
15474;SDS011;7839;50.462;9.678;2022-12-05T18:05:02;4.93;;;3.57;;
15474;SDS011;7839;50.462;9.678;2022-12-05T18:11:42;4.00;;;3.33;;
15474;SDS011;7839;50.462;9.678;2022-12-05T18:18:23;4.40;;;3.50;;
15474;SDS011;7839;50.462;9.678;2022-12-05T18:25:06;4.67;;;3.40;;
15474;SDS011;7839;50.462;9.678;2022-12-05T18:31:46;3.70;;;3.30;;
15474;SDS011;7839;50.462;9.678;2022-12-05T18:38:27;4.50;;;3.40;;
15474;SDS011;7839;50.462;9.678;2022-12-05T18:45:07;3.37;;;3.07;;
15474;SDS011;7839;50.462;9.678;2022-12-05T18:51:48;3.60;;;2.57;;
15474;SDS011;7839;50.462;9.678;2022-12-05T18:58:29;3.50;;;3.10;;
15474;SDS011;7839;50.462;9.678;2022-12-05T19:05:10;3.10;;;2.80;;
15474;SDS011;7839;50.462;9.678;2022-12-05T19:11:51;3.13;;;2.63;;
15474;SDS011;7839;50.462;9.678;2022-12-05T19:18:34;3.47;;;2.90;;
15474;SDS011;7839;50.462;9.678;2022-12-05T19:25:15;2.90;;;2.60;;
15474;SDS011;7839;50.462;9.678;2022-12-05T19:31:56;2.83;;;2.63;;
15474;SDS011;7839;50.462;9.678;2022-12-05T19:38:37;2.40;;;2.10;;
15474;SDS011;7839;50.462;9.678;2022-12-05T19:45:18;3.20;;;2.63;;
15474;SDS011;7839;50.462;9.678;2022-12-05T19:51:58;2.90;;;2.63;;
15474;SDS011;7839;50.462;9.678;2022-12-05T19:58:38;2.90;;;2.40;;
15474;SDS011;7839;50.462;9.678;2022-12-05T20:05:19;2.20;;;2.00;;
15474;SDS011;7839;50.462;9.678;2022-12-05T20:12:00;2.93;;;2.30;;
15474;SDS011;7839;50.462;9.678;2022-12-05T20:18:43;2.67;;;2.23;;
15474;SDS011;7839;50.462;9.678;2022-12-05T20:25:23;3.17;;;2.47;;
15474;SDS011;7839;50.462;9.678;2022-12-05T20:32:03;2.40;;;2.20;;
15474;SDS011;7839;50.462;9.678;2022-12-05T20:38:44;2.30;;;2.10;;
15474;SDS011;7839;50.462;9.678;2022-12-05T20:45:25;3.53;;;2.50;;
15474;SDS011;7839;50.462;9.678;2022-12-05T20:52:05;2.30;;;2.10;;
15474;SDS011;7839;50.462;9.678;2022-12-05T20:58:47;2.00;;;1.90;;
15474;SDS011;7839;50.462;9.678;2022-12-05T21:05:28;2.17;;;1.97;;
15474;SDS011;7839;50.462;9.678;2022-12-05T21:12:08;2.92;;;2.65;;
15474;SDS011;7839;50.462;9.678;2022-12-05T21:18:50;2.20;;;2.00;;
15474;SDS011;7839;50.462;9.678;2022-12-05T21:25:31;2.87;;;2.43;;
15474;SDS011;7839;50.462;9.678;2022-12-05T21:32:12;2.77;;;2.50;;
15474;SDS011;7839;50.462;9.678;2022-12-05T21:38:53;2.70;;;2.50;;
15474;SDS011;7839;50.462;9.678;2022-12-05T21:45:36;2.73;;;2.37;;
15474;SDS011;7839;50.462;9.678;2022-12-05T21:52:16;3.83;;;2.90;;
15474;SDS011;7839;50.462;9.678;2022-12-05T21:58:57;2.47;;;2.27;;
15474;SDS011;7839;50.462;9.678;2022-12-05T22:05:37;3.23;;;2.93;;
15474;SDS011;7839;50.462;9.678;2022-12-05T22:12:17;2.47;;;2.27;;
15474;SDS011;7839;50.462;9.678;2022-12-05T22:18:57;2.60;;;2.30;;
15474;SDS011;7839;50.462;9.678;2022-12-05T22:25:39;2.73;;;2.50;;
15474;SDS011;7839;50.462;9.678;2022-12-05T22:32:19;2.53;;;2.33;;
15474;SDS011;7839;50.462;9.678;2022-12-05T22:38:59;2.33;;;2.13;;
15474;SDS011;7839;50.462;9.678;2022-12-05T22:45:40;3.27;;;2.77;;
15474;SDS011;7839;50.462;9.678;2022-12-05T22:52:21;2.70;;;2.40;;
15474;SDS011;7839;50.462;9.678;2022-12-05T22:59:02;2.83;;;2.53;;
15474;SDS011;7839;50.462;9.678;2022-12-05T23:05:42;3.43;;;3.13;;
15474;SDS011;7839;50.462;9.678;2022-12-05T23:12:23;2.40;;;2.20;;
15474;SDS011;7839;50.462;9.678;2022-12-05T23:19:03;2.50;;;2.30;;
15474;SDS011;7839;50.462;9.678;2022-12-05T23:25:44;3.73;;;3.20;;
15474;SDS011;7839;50.462;9.678;2022-12-05T23:32:24;3.30;;;3.00;;
15474;SDS011;7839;50.462;9.678;2022-12-05T23:39:05;3.03;;;2.77;;
15474;SDS011;7839;50.462;9.678;2022-12-05T23:45:46;3.10;;;2.80;;
15474;SDS011;7839;50.462;9.678;2022-12-05T23:52:26;5.97;;;2.53;;
15474;SDS011;7839;50.462;9.678;2022-12-05T23:59:07;2.60;;;2.40;;
